createdAt,value
2023-03-29T00:00:14.666Z,61.75
2023-03-29T00:02:49.167Z,62.02
2023-03-29T00:05:23.234Z,62.06
2023-03-29T00:08:01.952Z,62.20
2023-03-29T00:10:34.423Z,62.13
2023-03-29T00:13:05.875Z,61.85
2023-03-29T00:15:36.839Z,62.21
2023-03-29T00:18:07.750Z,61.99
2023-03-29T00:20:45.867Z,62.02
2023-03-29T00:23:19.405Z,62.04
2023-03-29T00:25:49.944Z,62.22
2023-03-29T00:28:20.589Z,61.87
2023-03-29T00:30:52.346Z,61.83
2023-03-29T00:33:23.659Z,62.13
2023-03-29T00:35:56.361Z,62.07
2023-03-29T00:38:29.552Z,61.81
2023-03-29T00:41:00.343Z,62.06
2023-03-29T00:43:31.419Z,61.99
2023-03-29T00:46:04.085Z,61.85
2023-03-29T00:48:34.705Z,61.81
2023-03-29T00:51:10.360Z,62.01
2023-03-29T00:53:48.893Z,61.90
2023-03-29T00:56:24.890Z,61.90
2023-03-29T00:59:00.633Z,61.63
2023-03-29T01:01:38.302Z,61.81
2023-03-29T01:04:18.739Z,61.48
2023-03-29T01:06:57.019Z,61.62
2023-03-29T01:09:33.249Z,61.69
2023-03-29T01:12:08.477Z,61.67
2023-03-29T01:14:43.124Z,61.90
2023-03-29T01:17:16.236Z,61.98
2023-03-29T01:19:50.663Z,61.78
2023-03-29T01:22:31.194Z,61.99
2023-03-29T01:25:13.374Z,61.60
2023-03-29T01:27:54.316Z,61.62
2023-03-29T01:30:30.772Z,61.96
2023-03-29T01:33:06.466Z,61.86
2023-03-29T01:35:43.918Z,61.87
2023-03-29T01:38:21.019Z,62.02
2023-03-29T01:40:51.728Z,62.20
2023-03-29T01:43:31.720Z,62.07
2023-03-29T01:46:08.089Z,62.14
2023-03-29T01:48:46.017Z,62.55
2023-03-29T01:51:21.575Z,62.19
2023-03-29T01:54:00.336Z,62.26
2023-03-29T01:56:37.782Z,62.32
2023-03-29T01:59:15.481Z,62.18
2023-03-29T02:01:51.881Z,62.02
2023-03-29T02:04:29.227Z,62.22
2023-03-29T02:07:01.733Z,62.38
2023-03-29T02:09:33.213Z,62.20
2023-03-29T02:12:10.230Z,62.32
2023-03-29T02:14:43.480Z,62.40
2023-03-29T02:17:22.098Z,62.55
2023-03-29T02:19:58.358Z,62.65
2023-03-29T02:22:33.717Z,62.89
2023-03-29T02:25:07.528Z,63.13
2023-03-29T02:27:38.668Z,63.23
2023-03-29T02:30:14.751Z,63.28
2023-03-29T02:32:55.920Z,63.45
2023-03-29T02:35:34.867Z,63.32
2023-03-29T02:38:07.934Z,63.58
2023-03-29T02:40:42.283Z,63.63
2023-03-29T02:43:16.005Z,63.40
2023-03-29T02:45:50.346Z,63.57
2023-03-29T02:48:24.847Z,63.64
2023-03-29T02:50:59.711Z,63.81
2023-03-29T02:53:35.029Z,63.74
2023-03-29T02:56:06.344Z,63.98
2023-03-29T02:58:37.113Z,64.26
2023-03-29T03:01:11.429Z,64.54
2023-03-29T03:03:42.989Z,64.76
2023-03-29T03:06:14.174Z,64.62
2023-03-29T03:08:45.008Z,64.92
2023-03-29T03:11:15.566Z,64.52
2023-03-29T03:13:46.108Z,64.55
2023-03-29T03:16:19.718Z,64.63
2023-03-29T03:18:51.497Z,64.50
2023-03-29T03:21:22.391Z,64.40
2023-03-29T03:23:53.653Z,64.62
2023-03-29T03:26:30.288Z,64.75
2023-03-29T03:29:02.537Z,64.52
2023-03-29T03:31:55.845Z,64.74
2023-03-29T03:34:49.855Z,64.76
2023-03-29T03:37:20.509Z,64.92
2023-03-29T03:39:52.087Z,64.84
2023-03-29T03:42:23.064Z,64.92
2023-03-29T03:44:54.321Z,65.00
2023-03-29T03:47:54.173Z,64.79
2023-03-29T03:50:38.380Z,64.78
2023-03-29T03:53:10.657Z,65.07
2023-03-29T03:56:02.381Z,65.09
2023-03-29T03:58:38.233Z,65.29
2023-03-29T04:01:10.385Z,65.30
2023-03-29T04:03:49.939Z,65.21
2023-03-29T04:06:22.788Z,65.43
2023-03-29T04:09:25.916Z,65.65
2023-03-29T04:12:14.006Z,65.51
2023-03-29T04:14:47.629Z,65.54
2023-03-29T04:17:22.918Z,65.57
2023-03-29T04:20:11.852Z,65.63
2023-03-29T04:22:44.080Z,65.83
2023-03-29T04:25:14.713Z,65.92
2023-03-29T04:27:51.724Z,65.74
2023-03-29T04:30:34.053Z,65.67
2023-03-29T04:33:04.662Z,66.01
2023-03-29T04:35:39.079Z,66.29
2023-03-29T04:38:13.524Z,66.05
2023-03-29T04:40:45.254Z,66.32
2023-03-29T04:43:23.903Z,66.35
2023-03-29T04:46:10.425Z,66.37
2023-03-29T04:49:04.103Z,66.51
2023-03-29T04:51:41.661Z,66.32
2023-03-29T04:54:13.724Z,66.26
2023-03-29T04:57:02.833Z,66.27
2023-03-29T04:59:42.370Z,66.24
2023-03-29T05:02:37.061Z,66.15
2023-03-29T05:05:08.698Z,66.13
2023-03-29T05:07:42.897Z,65.83
2023-03-29T05:10:15.180Z,66.43
2023-03-29T05:12:47.174Z,66.28
2023-03-29T05:15:17.941Z,66.18
2023-03-29T05:17:49.074Z,66.65
2023-03-29T05:20:20.356Z,66.50
2023-03-29T05:22:54.967Z,66.44
2023-03-29T05:25:45.506Z,66.65
2023-03-29T05:28:16.318Z,66.82
2023-03-29T05:30:47.677Z,66.51
2023-03-29T05:33:24.771Z,66.49
2023-03-29T05:36:02.481Z,66.29
2023-03-29T05:38:37.192Z,66.25
2023-03-29T05:41:09.306Z,66.31
2023-03-29T05:43:43.127Z,66.42
2023-03-29T05:46:14.146Z,65.94
2023-03-29T05:48:51.981Z,65.91
2023-03-29T05:51:24.920Z,66.07
2023-03-29T05:54:01.735Z,67.04
2023-03-29T05:56:32.335Z,66.13
2023-03-29T05:59:03.468Z,66.46
2023-03-29T06:01:34.277Z,66.26
2023-03-29T06:04:09.289Z,66.28
2023-03-29T06:06:46.819Z,66.19
2023-03-29T06:09:20.251Z,65.97
2023-03-29T06:12:05.401Z,65.99
2023-03-29T06:14:43.093Z,65.97
2023-03-29T06:17:23.071Z,66.08
2023-03-29T06:19:53.700Z,66.06
2023-03-29T06:22:28.210Z,65.63
2023-03-29T06:25:01.938Z,65.46
2023-03-29T06:27:37.220Z,65.57
2023-03-29T06:30:09.961Z,65.05
2023-03-29T06:32:41.586Z,65.18
2023-03-29T06:35:22.963Z,64.98
2023-03-29T06:37:59.778Z,65.28
2023-03-29T06:40:40.890Z,65.00
2023-03-29T06:43:12.462Z,64.45
2023-03-29T06:46:12.357Z,64.55
2023-03-29T06:48:57.218Z,64.88
2023-03-29T06:51:33.801Z,64.89
2023-03-29T06:54:04.611Z,64.68
2023-03-29T06:56:39.851Z,64.28
2023-03-29T06:59:16.398Z,63.94
2023-03-29T07:02:12.733Z,63.98
2023-03-29T07:05:12.278Z,63.89
2023-03-29T07:08:05.002Z,63.81
2023-03-29T07:11:03.399Z,63.90
2023-03-29T07:13:43.286Z,63.73
2023-03-29T07:16:19.459Z,64.00
2023-03-29T07:19:12.665Z,63.85
2023-03-29T07:22:08.322Z,64.17
2023-03-29T07:24:49.571Z,64.31
2023-03-29T07:27:21.021Z,64.51
2023-03-29T07:29:57.152Z,64.96
2023-03-29T07:32:28.431Z,65.34
2023-03-29T07:35:08.310Z,65.27
2023-03-29T07:37:39.885Z,65.12
2023-03-29T07:40:16.357Z,64.88
2023-03-29T07:43:09.571Z,65.31
2023-03-29T07:45:47.373Z,64.76
2023-03-29T07:48:18.311Z,64.74
2023-03-29T07:50:53.838Z,64.89
2023-03-29T07:53:29.912Z,65.01
2023-03-29T07:56:02.586Z,64.70
2023-03-29T07:58:53.257Z,64.72
2023-03-29T08:01:26.963Z,64.28
2023-03-29T08:04:06.107Z,64.37
2023-03-29T08:06:55.501Z,64.30
2023-03-29T08:09:32.283Z,64.19
2023-03-29T08:12:02.907Z,64.31
2023-03-29T08:14:39.180Z,64.37
2023-03-29T08:17:22.973Z,64.42
2023-03-29T08:19:54.526Z,64.25
2023-03-29T08:22:27.305Z,64.16
2023-03-29T08:25:08.113Z,63.72
2023-03-29T08:27:47.700Z,63.77
2023-03-29T08:30:25.192Z,63.49
2023-03-29T08:32:58.647Z,63.42
2023-03-29T08:35:29.760Z,63.64
2023-03-29T08:38:14.463Z,63.34
2023-03-29T08:40:45.667Z,63.67
2023-03-29T08:43:50.561Z,63.51
2023-03-29T08:46:47.142Z,63.95
2023-03-29T08:49:29.850Z,64.08
2023-03-29T08:52:04.676Z,63.68
2023-03-29T08:54:40.363Z,63.70
2023-03-29T08:57:20.806Z,63.70
2023-03-29T08:59:58.459Z,63.63
2023-03-29T09:02:34.157Z,63.71
2023-03-29T09:05:23.529Z,63.54
2023-03-29T09:08:16.606Z,63.46
2023-03-29T09:10:50.995Z,63.69
2023-03-29T09:13:35.780Z,63.82
2023-03-29T09:16:15.793Z,63.72
2023-03-29T09:18:59.292Z,63.84
2023-03-29T09:21:46.968Z,64.26
2023-03-29T09:24:32.921Z,64.03
2023-03-29T09:27:13.008Z,64.22
2023-03-29T09:29:59.847Z,64.09
2023-03-29T09:32:54.690Z,63.97
2023-03-29T09:35:38.425Z,63.76
2023-03-29T09:38:15.452Z,64.02
2023-03-29T09:40:50.996Z,64.00
2023-03-29T09:43:32.782Z,63.90
2023-03-29T09:46:08.285Z,63.96
2023-03-29T09:48:42.789Z,63.86
2023-03-29T09:51:15.909Z,63.86
2023-03-29T09:53:49.880Z,64.08
2023-03-29T09:56:32.541Z,64.30
2023-03-29T09:59:15.608Z,64.33
2023-03-29T10:01:48.454Z,64.22
2023-03-29T10:04:22.419Z,64.27
2023-03-29T10:07:01.583Z,64.80
2023-03-29T10:09:36.221Z,64.60
2023-03-29T10:12:19.727Z,64.70
2023-03-29T10:14:54.012Z,64.72
2023-03-29T10:17:26.881Z,64.80
2023-03-29T10:20:03.071Z,64.84
2023-03-29T10:22:38.248Z,64.83
2023-03-29T10:25:17.284Z,64.97
2023-03-29T10:27:51.038Z,65.25
2023-03-29T10:30:28.693Z,65.10
2023-03-29T10:33:02.123Z,64.88
2023-03-29T10:35:37.615Z,64.81
2023-03-29T10:38:13.557Z,64.61
2023-03-29T10:40:51.925Z,64.48
2023-03-29T10:43:26.189Z,64.45
2023-03-29T10:45:57.963Z,65.21
2023-03-29T10:48:32.791Z,64.32
2023-03-29T10:51:05.921Z,63.97
2023-03-29T10:53:39.443Z,63.64
2023-03-29T10:56:35.195Z,63.27
2023-03-29T10:59:30.330Z,62.82
2023-03-29T11:02:42.577Z,62.93
2023-03-29T11:05:25.728Z,63.04
2023-03-29T11:08:12.776Z,63.24
2023-03-29T11:10:51.531Z,63.30
2023-03-29T11:13:31.815Z,63.48
2023-03-29T11:16:13.314Z,63.51
2023-03-29T11:19:18.503Z,63.36
2023-03-29T11:21:59.298Z,62.93
2023-03-29T11:24:38.956Z,62.76
2023-03-29T11:27:23.950Z,62.22
2023-03-29T11:30:08.810Z,62.11
2023-03-29T11:32:48.908Z,62.52
2023-03-29T11:35:45.186Z,62.52
2023-03-29T11:38:32.592Z,62.42
2023-03-29T11:41:11.637Z,62.28
2023-03-29T11:43:47.914Z,62.46
2023-03-29T11:46:28.579Z,62.83
2023-03-29T11:49:05.641Z,63.21
2023-03-29T11:51:41.488Z,62.97
2023-03-29T11:54:20.849Z,62.65
2023-03-29T11:56:58.648Z,62.69
2023-03-29T11:59:36.019Z,62.50
2023-03-29T12:02:19.797Z,62.56
2023-03-29T12:04:55.169Z,62.59
2023-03-29T12:07:33.668Z,63.17
2023-03-29T12:10:10.178Z,63.20
2023-03-29T12:12:48.444Z,63.47
2023-03-29T12:15:21.770Z,63.45
2023-03-29T12:18:27.490Z,63.22
2023-03-29T12:21:02.439Z,63.29
2023-03-29T12:23:36.435Z,63.37
2023-03-29T12:26:16.455Z,63.32
2023-03-29T12:29:12.224Z,63.24
2023-03-29T12:31:51.977Z,63.45
2023-03-29T12:34:41.898Z,63.54
2023-03-29T12:37:50.341Z,63.46
2023-03-29T12:41:05.376Z,63.32
2023-03-29T12:43:54.888Z,63.33
2023-03-29T12:46:39.256Z,63.41
2023-03-29T12:49:16.117Z,63.63
2023-03-29T12:51:49.859Z,63.83
2023-03-29T12:54:28.079Z,63.92
2023-03-29T12:57:02.531Z,64.05
2023-03-29T12:59:43.175Z,63.96
2023-03-29T13:02:39.600Z,63.91
2023-03-29T13:05:32.304Z,64.05
2023-03-29T13:08:20.240Z,64.17
2023-03-29T13:10:57.802Z,64.54
2023-03-29T13:13:32.634Z,64.86
2023-03-29T13:16:18.126Z,65.09
2023-03-29T13:19:09.553Z,65.43
2023-03-29T13:21:51.540Z,65.60
2023-03-29T13:24:45.114Z,66.18
2023-03-29T13:27:28.100Z,66.48
2023-03-29T13:30:26.234Z,66.98
2023-03-29T13:33:13.651Z,67.02
2023-03-29T13:35:52.114Z,67.51
2023-03-29T13:38:28.847Z,67.29
2023-03-29T13:41:07.552Z,66.84
2023-03-29T13:43:40.536Z,66.68
2023-03-29T13:46:25.266Z,66.23
2023-03-29T13:49:02.468Z,66.17
2023-03-29T13:51:45.148Z,65.86
2023-03-29T13:54:29.647Z,65.62
2023-03-29T13:57:04.892Z,66.88
2023-03-29T13:59:41.662Z,66.09
2023-03-29T14:02:19.778Z,66.11
2023-03-29T14:04:54.263Z,66.25
2023-03-29T14:07:27.272Z,66.35
2023-03-29T14:10:01.620Z,66.62
2023-03-29T14:12:41.849Z,67.07
2023-03-29T14:15:24.047Z,67.23
2023-03-29T14:18:00.655Z,66.87
2023-03-29T14:20:34.383Z,66.57
2023-03-29T14:23:13.331Z,66.27
2023-03-29T14:25:46.892Z,66.17
2023-03-29T14:28:29.072Z,66.05
2023-03-29T14:30:59.977Z,65.79
2023-03-29T14:33:34.641Z,65.52
2023-03-29T14:36:07.987Z,65.52
2023-03-29T14:38:39.703Z,65.78
2023-03-29T14:41:10.416Z,65.97
2023-03-29T14:43:44.091Z,66.42
2023-03-29T14:46:17.314Z,66.71
2023-03-29T14:48:48.657Z,66.54
2023-03-29T14:51:20.293Z,66.31
2023-03-29T14:53:52.100Z,66.55
2023-03-29T14:56:25.770Z,66.91
2023-03-29T14:59:00.396Z,66.75
2023-03-29T15:01:31.476Z,66.80
2023-03-29T15:04:08.144Z,66.76
2023-03-29T15:06:44.322Z,66.96
2023-03-29T15:09:19.782Z,67.06
2023-03-29T15:11:57.839Z,67.19
2023-03-29T15:14:34.482Z,67.49
2023-03-29T15:17:07.193Z,67.44
2023-03-29T15:19:39.482Z,67.13
2023-03-29T15:22:11.967Z,67.17
2023-03-29T15:24:47.497Z,67.40
2023-03-29T15:27:21.272Z,67.52
2023-03-29T15:30:03.104Z,67.29
2023-03-29T15:32:39.141Z,67.35
2023-03-29T15:35:12.445Z,67.36
2023-03-29T15:37:43.077Z,67.30
2023-03-29T15:40:18.302Z,67.54
2023-03-29T15:42:49.310Z,67.50
2023-03-29T15:45:26.063Z,67.49
2023-03-29T15:47:57.181Z,67.50
2023-03-29T15:50:27.881Z,67.31
2023-03-29T15:53:12.294Z,67.71
2023-03-29T15:55:49.034Z,67.55
2023-03-29T15:58:22.875Z,67.95
2023-03-29T16:01:02.919Z,67.97
2023-03-29T16:03:33.806Z,67.76
2023-03-29T16:06:04.795Z,67.99
2023-03-29T16:08:36.106Z,67.79
2023-03-29T16:11:07.680Z,67.81
2023-03-29T16:13:39.557Z,67.76
2023-03-29T16:16:17.459Z,67.88
2023-03-29T16:18:52.950Z,67.76
2023-03-29T16:21:26.683Z,67.84
2023-03-29T16:23:57.594Z,68.04
2023-03-29T16:26:30.506Z,67.95
2023-03-29T16:29:01.227Z,68.37
2023-03-29T16:31:36.675Z,68.21
2023-03-29T16:34:10.031Z,68.09
2023-03-29T16:36:41.699Z,68.09
2023-03-29T16:39:16.067Z,68.08
2023-03-29T16:41:51.502Z,68.10
2023-03-29T16:44:29.365Z,67.86
2023-03-29T16:47:03.253Z,68.00
2023-03-29T16:49:39.932Z,68.36
2023-03-29T16:52:11.751Z,68.19
2023-03-29T16:54:42.799Z,68.51
2023-03-29T16:57:13.828Z,68.17
2023-03-29T16:59:47.568Z,68.25
2023-03-29T17:02:21.104Z,68.32
2023-03-29T17:04:54.225Z,68.26
2023-03-29T17:07:27.293Z,68.42
2023-03-29T17:09:57.994Z,68.59
2023-03-29T17:12:32.985Z,68.55
2023-03-29T17:15:04.599Z,68.90
2023-03-29T17:17:38.261Z,69.00
2023-03-29T17:20:12.587Z,69.19
2023-03-29T17:22:43.307Z,70.44
2023-03-29T17:25:14.230Z,69.09
2023-03-29T17:27:45.639Z,69.02
2023-03-29T17:30:16.937Z,69.03
2023-03-29T17:32:50.256Z,69.13
2023-03-29T17:35:21.035Z,69.07
2023-03-29T17:37:51.753Z,69.21
2023-03-29T17:40:22.742Z,69.44
2023-03-29T17:42:53.574Z,69.44
2023-03-29T17:45:24.443Z,69.39
2023-03-29T17:47:57.674Z,69.19
2023-03-29T17:50:28.557Z,69.28
2023-03-29T17:52:59.242Z,69.01
2023-03-29T17:55:29.989Z,69.31
2023-03-29T17:58:00.653Z,69.17
2023-03-29T18:00:31.360Z,69.28
2023-03-29T18:03:04.690Z,69.13
2023-03-29T18:05:37.473Z,68.99
2023-03-29T18:08:10.926Z,69.21
2023-03-29T18:10:43.652Z,69.10
2023-03-29T18:13:16.531Z,69.17
2023-03-29T18:15:48.017Z,69.34
2023-03-29T18:18:24.950Z,69.11
2023-03-29T18:20:56.858Z,69.23
2023-03-29T18:23:27.809Z,68.97
2023-03-29T18:26:03.109Z,69.36
2023-03-29T18:28:34.008Z,69.23
2023-03-29T18:31:04.625Z,69.17
2023-03-29T18:33:38.286Z,69.38
2023-03-29T18:36:13.245Z,69.27
2023-03-29T18:38:44.604Z,69.44
2023-03-29T18:41:17.210Z,69.44
2023-03-29T18:43:47.912Z,69.54
2023-03-29T18:46:18.583Z,69.47
2023-03-29T18:48:53.967Z,69.46
2023-03-29T18:51:25.983Z,69.64
2023-03-29T18:53:56.958Z,69.45
2023-03-29T18:56:28.190Z,69.61
2023-03-29T18:58:59.017Z,69.62
2023-03-29T19:01:29.773Z,69.63
2023-03-29T19:04:03.348Z,69.31
2023-03-29T19:06:34.628Z,69.38
2023-03-29T19:09:05.608Z,69.46
2023-03-29T19:11:36.909Z,69.66
2023-03-29T19:14:09.455Z,69.81
2023-03-29T19:16:42.297Z,69.75
2023-03-29T19:19:16.234Z,69.51
2023-03-29T19:21:47.199Z,69.81
2023-03-29T19:24:17.957Z,69.95
2023-03-29T19:26:50.202Z,69.96
2023-03-29T19:29:21.101Z,69.96
2023-03-29T19:31:52.228Z,70.20
2023-03-29T19:34:28.022Z,70.18
2023-03-29T19:37:00.600Z,70.57
2023-03-29T19:39:31.377Z,70.59
2023-03-29T19:42:02.681Z,70.82
2023-03-29T19:44:33.864Z,70.69
2023-03-29T19:47:04.795Z,70.46
2023-03-29T19:49:39.320Z,70.54
2023-03-29T19:52:10.800Z,70.41
2023-03-29T19:54:42.677Z,70.39
2023-03-29T19:57:14.506Z,70.24
2023-03-29T19:59:46.892Z,70.44
2023-03-29T20:02:18.503Z,70.59
2023-03-29T20:04:53.436Z,70.50
2023-03-29T20:07:25.963Z,70.60
2023-03-29T20:09:58.561Z,70.76
2023-03-29T20:12:30.765Z,70.57
2023-03-29T20:15:03.059Z,70.65
2023-03-29T20:17:36.123Z,71.18
2023-03-29T20:20:14.868Z,71.00
2023-03-29T20:22:47.385Z,71.15
2023-03-29T20:25:19.799Z,71.36
2023-03-29T20:27:53.534Z,71.31
2023-03-29T20:30:26.104Z,71.41
2023-03-29T20:32:58.853Z,71.60
2023-03-29T20:35:32.270Z,71.41
2023-03-29T20:38:02.967Z,71.18
2023-03-29T20:40:34.616Z,71.12
2023-03-29T20:43:05.742Z,70.97
2023-03-29T20:45:51.623Z,70.89
2023-03-29T20:48:24.990Z,70.60
2023-03-29T20:50:58.364Z,70.67
2023-03-29T20:53:35.049Z,70.37
2023-03-29T20:56:06.670Z,70.64
2023-03-29T20:58:42.170Z,70.43
2023-03-29T21:01:14.476Z,70.49
2023-03-29T21:03:45.397Z,70.38
2023-03-29T21:06:19.439Z,70.54
2023-03-29T21:08:50.589Z,70.25
2023-03-29T21:11:22.170Z,70.32
2023-03-29T21:13:52.914Z,70.64
2023-03-29T21:16:25.396Z,70.54
2023-03-29T21:18:56.535Z,70.33
2023-03-29T21:21:30.727Z,70.78
2023-03-29T21:24:01.332Z,70.88
2023-03-29T21:26:31.927Z,70.72
2023-03-29T21:29:03.103Z,70.81
2023-03-29T21:31:33.739Z,70.84
2023-03-29T21:34:04.678Z,71.06
2023-03-29T21:36:38.413Z,71.06
2023-03-29T21:39:09.066Z,71.35
2023-03-29T21:41:41.573Z,71.21
2023-03-29T21:44:12.954Z,71.22
2023-03-29T21:46:43.611Z,71.12
2023-03-29T21:49:14.947Z,71.09
2023-03-29T21:51:48.272Z,71.45
2023-03-29T21:54:19.057Z,71.82
2023-03-29T21:56:50.796Z,72.34
2023-03-29T21:59:21.531Z,72.60
2023-03-29T22:01:52.292Z,72.79
2023-03-29T22:04:35.923Z,72.92
2023-03-29T22:07:11.008Z,73.06
2023-03-29T22:09:42.561Z,73.18
2023-03-29T22:12:13.244Z,73.14
2023-03-29T22:14:44.223Z,72.73
2023-03-29T22:17:16.308Z,72.74
2023-03-29T22:19:47.720Z,72.64
2023-03-29T22:22:21.900Z,72.96
2023-03-29T22:24:54.959Z,72.75
2023-03-29T22:27:26.138Z,72.65
2023-03-29T22:29:58.769Z,72.86
2023-03-29T22:32:31.979Z,72.71
2023-03-29T22:35:02.511Z,72.80
2023-03-29T22:37:36.140Z,73.11
2023-03-29T22:40:09.852Z,73.16
2023-03-29T22:42:40.413Z,73.13
2023-03-29T22:45:12.483Z,73.18
2023-03-29T22:47:43.183Z,73.06
2023-03-29T22:50:14.323Z,73.25
2023-03-29T22:52:47.425Z,73.17
2023-03-29T22:55:18.287Z,73.28
2023-03-29T22:57:48.918Z,73.23
2023-03-29T23:00:20.267Z,72.86
2023-03-29T23:02:50.943Z,72.72
2023-03-29T23:05:21.664Z,72.94
2023-03-29T23:07:56.016Z,72.84
2023-03-29T23:10:29.253Z,73.01
2023-03-29T23:13:08.703Z,72.94
2023-03-29T23:15:42.985Z,73.13
2023-03-29T23:18:18.515Z,72.91
2023-03-29T23:20:51.422Z,73.09
2023-03-29T23:23:26.093Z,73.12
2023-03-29T23:25:58.368Z,73.46
2023-03-29T23:28:31.554Z,73.42
2023-03-29T23:31:04.446Z,73.54
2023-03-29T23:33:38.826Z,73.32
2023-03-29T23:36:11.823Z,73.33
2023-03-29T23:38:48.005Z,73.43
2023-03-29T23:41:20.304Z,73.70
2023-03-29T23:43:52.398Z,73.67
2023-03-29T23:46:23.243Z,73.77
2023-03-29T23:48:54.355Z,73.54
2023-03-29T23:51:29.027Z,73.78
2023-03-29T23:54:02.392Z,73.85
2023-03-29T23:56:33.561Z,73.94
2023-03-29T23:59:04.696Z,73.71
